sensor_id;sensor_type;location;lat;lon;timestamp;temperature;humidity
44833;DHT22;30569;51.252;9.830;2024-03-02T00:00:38;7.90;99.90
44833;DHT22;30569;51.252;9.830;2024-03-02T00:03:06;7.60;99.90
44833;DHT22;30569;51.252;9.830;2024-03-02T00:05:32;7.50;99.90
44833;DHT22;30569;51.252;9.830;2024-03-02T00:07:58;7.60;99.90
44833;DHT22;30569;51.252;9.830;2024-03-02T00:10:38;7.50;99.90
44833;DHT22;30569;51.252;9.830;2024-03-02T00:13:10;7.60;99.90
44833;DHT22;30569;51.252;9.830;2024-03-02T00:15:47;7.60;99.90
44833;DHT22;30569;51.252;9.830;2024-03-02T00:18:19;7.50;99.90
44833;DHT22;30569;51.252;9.830;2024-03-02T00:23:14;7.50;99.90
44833;DHT22;30569;51.252;9.830;2024-03-02T00:25:46;7.50;99.90
44833;DHT22;30569;51.252;9.830;2024-03-02T00:28:19;7.20;99.90
44833;DHT22;30569;51.252;9.830;2024-03-02T00:30:51;7.40;99.90
44833;DHT22;30569;51.252;9.830;2024-03-02T00:33:21;7.30;99.90
44833;DHT22;30569;51.252;9.830;2024-03-02T00:35:47;7.30;99.90
44833;DHT22;30569;51.252;9.830;2024-03-02T00:38:14;7.30;99.90
44833;DHT22;30569;51.252;9.830;2024-03-02T00:40:41;7.00;99.90
44833;DHT22;30569;51.252;9.830;2024-03-02T00:43:18;7.00;99.90
44833;DHT22;30569;51.252;9.830;2024-03-02T00:45:53;6.90;99.90
44833;DHT22;30569;51.252;9.830;2024-03-02T00:50:44;6.90;99.90
44833;DHT22;30569;51.252;9.830;2024-03-02T00:53:12;6.90;99.90
44833;DHT22;30569;51.252;9.830;2024-03-02T00:55:38;6.80;99.90
44833;DHT22;30569;51.252;9.830;2024-03-02T00:58:05;6.90;99.90
44833;DHT22;30569;51.252;9.830;2024-03-02T01:00:30;6.90;99.90
44833;DHT22;30569;51.252;9.830;2024-03-02T01:02:56;6.70;99.90
44833;DHT22;30569;51.252;9.830;2024-03-02T01:05:21;6.60;99.90
44833;DHT22;30569;51.252;9.830;2024-03-02T01:07:47;6.40;99.90
44833;DHT22;30569;51.252;9.830;2024-03-02T01:10:12;6.50;99.90
44833;DHT22;30569;51.252;9.830;2024-03-02T01:12:38;6.60;99.90
44833;DHT22;30569;51.252;9.830;2024-03-02T01:15:05;6.60;99.90
44833;DHT22;30569;51.252;9.830;2024-03-02T01:17:33;6.70;99.90
44833;DHT22;30569;51.252;9.830;2024-03-02T01:22:25;6.80;99.90
44833;DHT22;30569;51.252;9.830;2024-03-02T01:24:51;6.70;99.90
44833;DHT22;30569;51.252;9.830;2024-03-02T01:27:17;6.80;99.90
44833;DHT22;30569;51.252;9.830;2024-03-02T01:29:42;6.80;99.90
44833;DHT22;30569;51.252;9.830;2024-03-02T01:32:08;6.90;99.90
44833;DHT22;30569;51.252;9.830;2024-03-02T01:34:33;6.80;99.90
44833;DHT22;30569;51.252;9.830;2024-03-02T01:36:59;6.80;99.90
44833;DHT22;30569;51.252;9.830;2024-03-02T01:39:24;6.70;99.90
44833;DHT22;30569;51.252;9.830;2024-03-02T01:41:50;6.50;99.90
44833;DHT22;30569;51.252;9.830;2024-03-02T01:44:15;6.60;99.90
44833;DHT22;30569;51.252;9.830;2024-03-02T01:46:41;6.60;99.90
44833;DHT22;30569;51.252;9.830;2024-03-02T01:49:07;6.70;99.90
44833;DHT22;30569;51.252;9.830;2024-03-02T01:51:32;6.50;99.90
44833;DHT22;30569;51.252;9.830;2024-03-02T01:53:58;6.80;99.90
44833;DHT22;30569;51.252;9.830;2024-03-02T01:56:24;6.80;99.90
44833;DHT22;30569;51.252;9.830;2024-03-02T01:58:49;6.80;99.90
44833;DHT22;30569;51.252;9.830;2024-03-02T02:03:43;6.90;99.90
44833;DHT22;30569;51.252;9.830;2024-03-02T02:06:09;7.10;99.90
44833;DHT22;30569;51.252;9.830;2024-03-02T02:08:36;6.70;99.90
44833;DHT22;30569;51.252;9.830;2024-03-02T02:11:02;6.50;99.90
44833;DHT22;30569;51.252;9.830;2024-03-02T02:13:28;6.60;99.90
44833;DHT22;30569;51.252;9.830;2024-03-02T02:15:53;6.60;99.90
44833;DHT22;30569;51.252;9.830;2024-03-02T02:18:19;6.70;99.90
44833;DHT22;30569;51.252;9.830;2024-03-02T02:23:10;6.40;99.90
44833;DHT22;30569;51.252;9.830;2024-03-02T02:25:38;6.50;99.90
44833;DHT22;30569;51.252;9.830;2024-03-02T02:28:04;6.90;99.90
44833;DHT22;30569;51.252;9.830;2024-03-02T02:30:31;6.70;99.90
44833;DHT22;30569;51.252;9.830;2024-03-02T02:32:57;6.60;99.90
44833;DHT22;30569;51.252;9.830;2024-03-02T02:35:23;6.40;99.90
44833;DHT22;30569;51.252;9.830;2024-03-02T02:37:53;6.50;99.90
44833;DHT22;30569;51.252;9.830;2024-03-02T02:40:19;6.60;99.90
44833;DHT22;30569;51.252;9.830;2024-03-02T02:42:45;6.70;99.90
44833;DHT22;30569;51.252;9.830;2024-03-02T02:47:38;6.70;99.90
44833;DHT22;30569;51.252;9.830;2024-03-02T02:50:04;6.60;99.90
44833;DHT22;30569;51.252;9.830;2024-03-02T02:52:34;6.60;99.90
44833;DHT22;30569;51.252;9.830;2024-03-02T02:55:04;6.90;99.90
44833;DHT22;30569;51.252;9.830;2024-03-02T02:57:32;6.70;99.90
44833;DHT22;30569;51.252;9.830;2024-03-02T03:00:04;6.70;99.90
44833;DHT22;30569;51.252;9.830;2024-03-02T03:02:31;6.60;99.90
44833;DHT22;30569;51.252;9.830;2024-03-02T03:07:23;6.60;99.90
44833;DHT22;30569;51.252;9.830;2024-03-02T03:09:48;6.60;99.90
44833;DHT22;30569;51.252;9.830;2024-03-02T03:12:14;6.50;99.90
44833;DHT22;30569;51.252;9.830;2024-03-02T03:14:42;6.70;99.90
44833;DHT22;30569;51.252;9.830;2024-03-02T03:17:08;6.40;99.90
44833;DHT22;30569;51.252;9.830;2024-03-02T03:19:34;6.20;99.90
44833;DHT22;30569;51.252;9.830;2024-03-02T03:24:25;6.30;99.90
44833;DHT22;30569;51.252;9.830;2024-03-02T03:26:51;6.10;99.90
44833;DHT22;30569;51.252;9.830;2024-03-02T03:29:16;5.90;99.90
44833;DHT22;30569;51.252;9.830;2024-03-02T03:31:42;6.00;99.90
44833;DHT22;30569;51.252;9.830;2024-03-02T03:34:07;6.00;99.90
44833;DHT22;30569;51.252;9.830;2024-03-02T03:36:33;6.10;99.90
44833;DHT22;30569;51.252;9.830;2024-03-02T03:38:59;5.90;99.90
44833;DHT22;30569;51.252;9.830;2024-03-02T03:41:24;6.10;99.90
44833;DHT22;30569;51.252;9.830;2024-03-02T03:46:16;6.00;99.90
44833;DHT22;30569;51.252;9.830;2024-03-02T03:48:41;6.00;99.90
44833;DHT22;30569;51.252;9.830;2024-03-02T03:51:07;5.80;99.90
44833;DHT22;30569;51.252;9.830;2024-03-02T03:55:58;5.80;99.90
44833;DHT22;30569;51.252;9.830;2024-03-02T03:58:24;5.40;99.90
44833;DHT22;30569;51.252;9.830;2024-03-02T04:00:49;5.60;99.90
44833;DHT22;30569;51.252;9.830;2024-03-02T04:08:07;5.70;99.90
44833;DHT22;30569;51.252;9.830;2024-03-02T04:10:32;5.80;99.90
44833;DHT22;30569;51.252;9.830;2024-03-02T04:12:59;5.80;99.90
44833;DHT22;30569;51.252;9.830;2024-03-02T04:15:25;5.70;99.90
44833;DHT22;30569;51.252;9.830;2024-03-02T04:17:50;5.80;99.90
44833;DHT22;30569;51.252;9.830;2024-03-02T04:20:16;5.90;99.90
44833;DHT22;30569;51.252;9.830;2024-03-02T04:22:41;5.80;99.90
44833;DHT22;30569;51.252;9.830;2024-03-02T04:25:07;5.80;99.90
44833;DHT22;30569;51.252;9.830;2024-03-02T04:27:33;5.70;99.90
44833;DHT22;30569;51.252;9.830;2024-03-02T04:29:59;5.80;99.90
44833;DHT22;30569;51.252;9.830;2024-03-02T04:32:26;5.70;99.90
44833;DHT22;30569;51.252;9.830;2024-03-02T04:34:51;5.40;99.90
44833;DHT22;30569;51.252;9.830;2024-03-02T04:37:17;5.00;99.90
44833;DHT22;30569;51.252;9.830;2024-03-02T04:39:43;5.20;99.90
44833;DHT22;30569;51.252;9.830;2024-03-02T04:44:34;5.00;99.90
44833;DHT22;30569;51.252;9.830;2024-03-02T04:47:00;4.90;99.90
44833;DHT22;30569;51.252;9.830;2024-03-02T04:49:25;4.90;99.90
44833;DHT22;30569;51.252;9.830;2024-03-02T04:51:51;4.90;99.90
44833;DHT22;30569;51.252;9.830;2024-03-02T04:54:16;4.80;99.90
44833;DHT22;30569;51.252;9.830;2024-03-02T04:56:42;4.90;99.90
44833;DHT22;30569;51.252;9.830;2024-03-02T05:04:07;4.80;99.90
44833;DHT22;30569;51.252;9.830;2024-03-02T05:08:58;4.50;99.90
44833;DHT22;30569;51.252;9.830;2024-03-02T05:11:24;4.20;99.90
44833;DHT22;30569;51.252;9.830;2024-03-02T05:14:05;4.30;99.90
44833;DHT22;30569;51.252;9.830;2024-03-02T05:16:34;4.70;99.90
44833;DHT22;30569;51.252;9.830;2024-03-02T05:19:00;4.60;99.90
44833;DHT22;30569;51.252;9.830;2024-03-02T05:21:26;4.70;99.90
44833;DHT22;30569;51.252;9.830;2024-03-02T05:23:51;4.70;99.90
44833;DHT22;30569;51.252;9.830;2024-03-02T05:26:17;4.60;99.90
44833;DHT22;30569;51.252;9.830;2024-03-02T05:28:43;4.70;99.90
44833;DHT22;30569;51.252;9.830;2024-03-02T05:31:11;4.80;99.90
44833;DHT22;30569;51.252;9.830;2024-03-02T05:33:40;4.70;99.90
44833;DHT22;30569;51.252;9.830;2024-03-02T05:38:34;4.20;99.90
44833;DHT22;30569;51.252;9.830;2024-03-02T05:40:59;4.00;99.90
44833;DHT22;30569;51.252;9.830;2024-03-02T05:43:25;4.10;99.90
44833;DHT22;30569;51.252;9.830;2024-03-02T05:48:16;4.50;99.90
44833;DHT22;30569;51.252;9.830;2024-03-02T05:50:42;4.70;99.90
44833;DHT22;30569;51.252;9.830;2024-03-02T05:53:07;4.70;99.90
44833;DHT22;30569;51.252;9.830;2024-03-02T05:55:33;4.50;99.90
44833;DHT22;30569;51.252;9.830;2024-03-02T05:57:59;4.40;99.90
44833;DHT22;30569;51.252;9.830;2024-03-02T06:00:42;4.60;99.90
44833;DHT22;30569;51.252;9.830;2024-03-02T06:08:00;4.20;99.90
44833;DHT22;30569;51.252;9.830;2024-03-02T06:10:26;4.30;99.90
44833;DHT22;30569;51.252;9.830;2024-03-02T06:12:52;4.40;99.90
44833;DHT22;30569;51.252;9.830;2024-03-02T06:15:17;4.60;99.90
44833;DHT22;30569;51.252;9.830;2024-03-02T06:17:43;4.40;99.90
44833;DHT22;30569;51.252;9.830;2024-03-02T06:20:09;4.20;99.90
44833;DHT22;30569;51.252;9.830;2024-03-02T06:22:35;4.40;99.90
44833;DHT22;30569;51.252;9.830;2024-03-02T06:25:00;4.20;99.90
44833;DHT22;30569;51.252;9.830;2024-03-02T06:27:26;4.40;99.90
44833;DHT22;30569;51.252;9.830;2024-03-02T06:32:19;4.40;99.90
44833;DHT22;30569;51.252;9.830;2024-03-02T06:37:10;4.00;99.90
44833;DHT22;30569;51.252;9.830;2024-03-02T06:39:36;3.60;99.90
44833;DHT22;30569;51.252;9.830;2024-03-02T06:42:01;3.80;99.90
44833;DHT22;30569;51.252;9.830;2024-03-02T06:44:27;3.90;99.90
44833;DHT22;30569;51.252;9.830;2024-03-02T06:46:53;4.20;99.90
44833;DHT22;30569;51.252;9.830;2024-03-02T06:49:19;4.30;99.90
44833;DHT22;30569;51.252;9.830;2024-03-02T06:51:45;4.60;99.90
44833;DHT22;30569;51.252;9.830;2024-03-02T06:54:10;5.00;99.90
44833;DHT22;30569;51.252;9.830;2024-03-02T06:59:03;4.60;99.90
44833;DHT22;30569;51.252;9.830;2024-03-02T07:03:55;4.40;99.90
44833;DHT22;30569;51.252;9.830;2024-03-02T07:11:12;4.80;99.90
44833;DHT22;30569;51.252;9.830;2024-03-02T07:13:38;5.10;99.90
44833;DHT22;30569;51.252;9.830;2024-03-02T07:16:04;5.10;99.90
44833;DHT22;30569;51.252;9.830;2024-03-02T07:23:24;5.60;99.90
44833;DHT22;30569;51.252;9.830;2024-03-02T07:25:52;5.70;99.90
44833;DHT22;30569;51.252;9.830;2024-03-02T07:28:22;6.10;99.90
44833;DHT22;30569;51.252;9.830;2024-03-02T07:30:57;6.40;99.90
44833;DHT22;30569;51.252;9.830;2024-03-02T07:33:24;6.90;99.90
44833;DHT22;30569;51.252;9.830;2024-03-02T07:35:49;6.90;99.90
44833;DHT22;30569;51.252;9.830;2024-03-02T07:38:15;7.40;99.90
44833;DHT22;30569;51.252;9.830;2024-03-02T07:40:41;7.40;99.90
44833;DHT22;30569;51.252;9.830;2024-03-02T07:43:07;7.60;99.90
44833;DHT22;30569;51.252;9.830;2024-03-02T07:45:34;7.70;99.90
44833;DHT22;30569;51.252;9.830;2024-03-02T07:48:01;7.90;99.90
44833;DHT22;30569;51.252;9.830;2024-03-02T07:50:29;7.90;99.90
44833;DHT22;30569;51.252;9.830;2024-03-02T07:55:21;8.50;99.90
44833;DHT22;30569;51.252;9.830;2024-03-02T07:57:49;8.50;99.90
44833;DHT22;30569;51.252;9.830;2024-03-02T08:00:15;8.70;99.90
44833;DHT22;30569;51.252;9.830;2024-03-02T08:02:41;8.80;99.90
44833;DHT22;30569;51.252;9.830;2024-03-02T08:05:08;9.00;99.90
44833;DHT22;30569;51.252;9.830;2024-03-02T08:07:34;9.20;99.90
44833;DHT22;30569;51.252;9.830;2024-03-02T08:09:59;9.70;99.90
44833;DHT22;30569;51.252;9.830;2024-03-02T08:12:25;9.70;99.90
44833;DHT22;30569;51.252;9.830;2024-03-02T08:14:51;10.00;99.90
44833;DHT22;30569;51.252;9.830;2024-03-02T08:17:16;10.20;99.90
44833;DHT22;30569;51.252;9.830;2024-03-02T08:19:43;10.10;99.90
44833;DHT22;30569;51.252;9.830;2024-03-02T08:22:09;9.80;99.90
44833;DHT22;30569;51.252;9.830;2024-03-02T08:24:35;10.20;99.90
44833;DHT22;30569;51.252;9.830;2024-03-02T08:27:01;10.30;99.90
44833;DHT22;30569;51.252;9.830;2024-03-02T08:29:26;10.40;99.90
44833;DHT22;30569;51.252;9.830;2024-03-02T08:31:53;10.40;99.90
44833;DHT22;30569;51.252;9.830;2024-03-02T08:41:45;9.80;99.90
44833;DHT22;30569;51.252;9.830;2024-03-02T08:44:11;10.20;99.90
44833;DHT22;30569;51.252;9.830;2024-03-02T08:46:37;10.60;99.90
44833;DHT22;30569;51.252;9.830;2024-03-02T08:49:04;11.00;99.90
44833;DHT22;30569;51.252;9.830;2024-03-02T08:51:29;11.00;99.90
44833;DHT22;30569;51.252;9.830;2024-03-02T08:53:55;11.10;99.90
44833;DHT22;30569;51.252;9.830;2024-03-02T08:56:21;11.40;99.90
44833;DHT22;30569;51.252;9.830;2024-03-02T08:58:50;11.60;99.90
44833;DHT22;30569;51.252;9.830;2024-03-02T09:01:17;11.50;99.90
44833;DHT22;30569;51.252;9.830;2024-03-02T09:03:43;11.60;99.90
44833;DHT22;30569;51.252;9.830;2024-03-02T09:06:12;11.70;99.90
44833;DHT22;30569;51.252;9.830;2024-03-02T09:08:39;11.70;99.90
44833;DHT22;30569;51.252;9.830;2024-03-02T09:11:05;12.00;99.90
44833;DHT22;30569;51.252;9.830;2024-03-02T09:13:32;12.20;99.70
44833;DHT22;30569;51.252;9.830;2024-03-02T09:15:57;12.30;99.20
44833;DHT22;30569;51.252;9.830;2024-03-02T09:18:23;12.50;98.90
44833;DHT22;30569;51.252;9.830;2024-03-02T09:20:48;11.30;98.80
44833;DHT22;30569;51.252;9.830;2024-03-02T09:23:14;11.00;99.90
44833;DHT22;30569;51.252;9.830;2024-03-02T09:25:40;11.90;99.40
44833;DHT22;30569;51.252;9.830;2024-03-02T09:28:06;12.00;99.40
44833;DHT22;30569;51.252;9.830;2024-03-02T09:30:32;12.60;99.00
44833;DHT22;30569;51.252;9.830;2024-03-02T09:32:58;12.80;98.70
44833;DHT22;30569;51.252;9.830;2024-03-02T09:35:23;13.20;97.30
44833;DHT22;30569;51.252;9.830;2024-03-02T09:37:49;13.30;97.30
44833;DHT22;30569;51.252;9.830;2024-03-02T09:40:15;13.50;95.80
44833;DHT22;30569;51.252;9.830;2024-03-02T09:42:41;13.40;95.10
44833;DHT22;30569;51.252;9.830;2024-03-02T09:45:09;13.80;96.10
44833;DHT22;30569;51.252;9.830;2024-03-02T09:47:34;14.50;94.80
44833;DHT22;30569;51.252;9.830;2024-03-02T09:50:00;14.70;93.80
44833;DHT22;30569;51.252;9.830;2024-03-02T09:52:26;14.80;93.90
44833;DHT22;30569;51.252;9.830;2024-03-02T09:57:18;14.20;94.00
44833;DHT22;30569;51.252;9.830;2024-03-02T09:59:44;14.30;93.00
44833;DHT22;30569;51.252;9.830;2024-03-02T10:02:10;14.20;91.70
44833;DHT22;30569;51.252;9.830;2024-03-02T10:04:36;15.20;93.10
44833;DHT22;30569;51.252;9.830;2024-03-02T10:07:17;16.50;91.30
44833;DHT22;30569;51.252;9.830;2024-03-02T10:09:45;16.10;90.40
44833;DHT22;30569;51.252;9.830;2024-03-02T10:12:12;16.90;88.80
44833;DHT22;30569;51.252;9.830;2024-03-02T10:14:38;16.30;88.90
44833;DHT22;30569;51.252;9.830;2024-03-02T10:17:05;17.20;88.20
44833;DHT22;30569;51.252;9.830;2024-03-02T10:19:31;14.60;90.10
44833;DHT22;30569;51.252;9.830;2024-03-02T10:22:04;12.60;92.10
44833;DHT22;30569;51.252;9.830;2024-03-02T10:24:41;12.30;94.80
44833;DHT22;30569;51.252;9.830;2024-03-02T10:27:15;12.40;95.10
44833;DHT22;30569;51.252;9.830;2024-03-02T10:29:42;12.40;94.60
44833;DHT22;30569;51.252;9.830;2024-03-02T10:32:11;12.80;94.40
44833;DHT22;30569;51.252;9.830;2024-03-02T10:34:40;12.90;94.20
44833;DHT22;30569;51.252;9.830;2024-03-02T10:37:07;13.00;93.30
44833;DHT22;30569;51.252;9.830;2024-03-02T10:39:34;12.30;94.30
44833;DHT22;30569;51.252;9.830;2024-03-02T10:42:02;11.80;95.20
44833;DHT22;30569;51.252;9.830;2024-03-02T10:44:29;12.40;94.90
44833;DHT22;30569;51.252;9.830;2024-03-02T10:46:55;11.70;95.00
44833;DHT22;30569;51.252;9.830;2024-03-02T10:49:23;11.60;95.00
44833;DHT22;30569;51.252;9.830;2024-03-02T10:51:49;11.10;94.90
44833;DHT22;30569;51.252;9.830;2024-03-02T10:54:15;11.30;95.60
44833;DHT22;30569;51.252;9.830;2024-03-02T10:56:43;11.40;95.20
44833;DHT22;30569;51.252;9.830;2024-03-02T11:01:47;11.20;94.10
44833;DHT22;30569;51.252;9.830;2024-03-02T11:04:16;11.30;95.70
44833;DHT22;30569;51.252;9.830;2024-03-02T11:06:48;11.70;95.60
44833;DHT22;30569;51.252;9.830;2024-03-02T11:09:14;11.70;94.70
44833;DHT22;30569;51.252;9.830;2024-03-02T11:11:43;11.70;94.80
44833;DHT22;30569;51.252;9.830;2024-03-02T11:14:14;11.80;94.70
44833;DHT22;30569;51.252;9.830;2024-03-02T11:16:42;11.80;93.40
44833;DHT22;30569;51.252;9.830;2024-03-02T11:19:10;11.60;94.40
44833;DHT22;30569;51.252;9.830;2024-03-02T11:21:37;11.70;94.60
44833;DHT22;30569;51.252;9.830;2024-03-02T11:26:51;11.60;94.20
44833;DHT22;30569;51.252;9.830;2024-03-02T11:32:06;11.40;94.10
44833;DHT22;30569;51.252;9.830;2024-03-02T11:34:35;11.70;94.60
44833;DHT22;30569;51.252;9.830;2024-03-02T11:37:02;11.80;93.20
44833;DHT22;30569;51.252;9.830;2024-03-02T11:39:28;12.10;93.70
44833;DHT22;30569;51.252;9.830;2024-03-02T11:41:57;12.20;92.70
44833;DHT22;30569;51.252;9.830;2024-03-02T11:44:27;12.10;92.60
44833;DHT22;30569;51.252;9.830;2024-03-02T11:47:03;12.10;93.80
44833;DHT22;30569;51.252;9.830;2024-03-02T11:49:49;12.40;94.80
44833;DHT22;30569;51.252;9.830;2024-03-02T11:52:15;12.50;93.00
44833;DHT22;30569;51.252;9.830;2024-03-02T11:54:44;12.70;92.10
44833;DHT22;30569;51.252;9.830;2024-03-02T11:57:15;12.60;92.40
44833;DHT22;30569;51.252;9.830;2024-03-02T11:59:42;12.60;92.70
44833;DHT22;30569;51.252;9.830;2024-03-02T12:02:14;12.60;91.90
44833;DHT22;30569;51.252;9.830;2024-03-02T12:04:41;12.60;93.60
44833;DHT22;30569;51.252;9.830;2024-03-02T12:07:08;12.70;91.60
44833;DHT22;30569;51.252;9.830;2024-03-02T12:09:34;12.90;91.90
44833;DHT22;30569;51.252;9.830;2024-03-02T12:12:07;12.70;90.40
44833;DHT22;30569;51.252;9.830;2024-03-02T12:14:35;12.90;91.80
44833;DHT22;30569;51.252;9.830;2024-03-02T12:17:01;13.30;91.70
44833;DHT22;30569;51.252;9.830;2024-03-02T12:19:29;13.50;91.40
44833;DHT22;30569;51.252;9.830;2024-03-02T12:21:56;14.00;88.60
44833;DHT22;30569;51.252;9.830;2024-03-02T12:24:22;14.00;91.10
44833;DHT22;30569;51.252;9.830;2024-03-02T12:26:49;14.00;90.20
44833;DHT22;30569;51.252;9.830;2024-03-02T12:29:15;13.90;88.20
44833;DHT22;30569;51.252;9.830;2024-03-02T12:31:44;13.90;88.40
44833;DHT22;30569;51.252;9.830;2024-03-02T12:34:17;13.70;88.60
44833;DHT22;30569;51.252;9.830;2024-03-02T12:36:43;13.70;88.10
44833;DHT22;30569;51.252;9.830;2024-03-02T12:39:09;13.20;90.60
44833;DHT22;30569;51.252;9.830;2024-03-02T12:41:37;13.30;89.50
44833;DHT22;30569;51.252;9.830;2024-03-02T12:44:04;16.30;92.00
44833;DHT22;30569;51.252;9.830;2024-03-02T12:46:30;13.70;91.70
44833;DHT22;30569;51.252;9.830;2024-03-02T12:48:56;13.70;90.70
44833;DHT22;30569;51.252;9.830;2024-03-02T12:51:22;13.60;87.30
44833;DHT22;30569;51.252;9.830;2024-03-02T12:53:55;13.70;90.10
44833;DHT22;30569;51.252;9.830;2024-03-02T12:56:22;13.90;88.90
44833;DHT22;30569;51.252;9.830;2024-03-02T12:58:47;14.10;90.00
44833;DHT22;30569;51.252;9.830;2024-03-02T13:01:14;13.60;90.00
44833;DHT22;30569;51.252;9.830;2024-03-02T13:03:41;13.30;90.50
44833;DHT22;30569;51.252;9.830;2024-03-02T13:06:07;13.30;91.20
44833;DHT22;30569;51.252;9.830;2024-03-02T13:08:34;13.80;91.20
44833;DHT22;30569;51.252;9.830;2024-03-02T13:11:00;13.80;89.00
44833;DHT22;30569;51.252;9.830;2024-03-02T13:13:26;13.70;89.20
44833;DHT22;30569;51.252;9.830;2024-03-02T13:15:55;13.90;90.70
44833;DHT22;30569;51.252;9.830;2024-03-02T13:18:21;14.20;90.80
44833;DHT22;30569;51.252;9.830;2024-03-02T13:20:47;14.60;89.20
44833;DHT22;30569;51.252;9.830;2024-03-02T13:23:13;14.80;87.80
44833;DHT22;30569;51.252;9.830;2024-03-02T13:25:39;15.00;90.40
44833;DHT22;30569;51.252;9.830;2024-03-02T13:28:05;14.80;90.20
44833;DHT22;30569;51.252;9.830;2024-03-02T13:30:31;14.90;86.70
44833;DHT22;30569;51.252;9.830;2024-03-02T13:32:57;15.00;87.50
44833;DHT22;30569;51.252;9.830;2024-03-02T13:35:23;15.10;87.40
44833;DHT22;30569;51.252;9.830;2024-03-02T13:37:49;14.90;90.10
44833;DHT22;30569;51.252;9.830;2024-03-02T13:40:16;14.60;90.10
44833;DHT22;30569;51.252;9.830;2024-03-02T13:42:46;14.50;91.60
44833;DHT22;30569;51.252;9.830;2024-03-02T13:45:12;14.50;91.30
44833;DHT22;30569;51.252;9.830;2024-03-02T13:47:38;14.60;90.90
44833;DHT22;30569;51.252;9.830;2024-03-02T13:50:04;14.60;90.80
44833;DHT22;30569;51.252;9.830;2024-03-02T13:52:30;14.50;91.00
44833;DHT22;30569;51.252;9.830;2024-03-02T13:54:56;14.60;91.30
44833;DHT22;30569;51.252;9.830;2024-03-02T13:57:22;14.50;90.30
44833;DHT22;30569;51.252;9.830;2024-03-02T13:59:47;14.00;92.30
44833;DHT22;30569;51.252;9.830;2024-03-02T14:02:13;14.10;92.40
44833;DHT22;30569;51.252;9.830;2024-03-02T14:04:39;14.20;91.10
44833;DHT22;30569;51.252;9.830;2024-03-02T14:07:05;14.30;90.70
44833;DHT22;30569;51.252;9.830;2024-03-02T14:09:34;14.40;91.80
44833;DHT22;30569;51.252;9.830;2024-03-02T14:12:00;14.40;90.40
44833;DHT22;30569;51.252;9.830;2024-03-02T14:14:26;14.10;90.20
44833;DHT22;30569;51.252;9.830;2024-03-02T14:16:53;13.90;91.00
44833;DHT22;30569;51.252;9.830;2024-03-02T14:19:19;13.90;91.30
44833;DHT22;30569;51.252;9.830;2024-03-02T14:21:46;13.80;90.20
44833;DHT22;30569;51.252;9.830;2024-03-02T14:24:13;13.80;90.30
44833;DHT22;30569;51.252;9.830;2024-03-02T14:26:38;14.20;90.10
44833;DHT22;30569;51.252;9.830;2024-03-02T14:29:04;14.30;89.80
44833;DHT22;30569;51.252;9.830;2024-03-02T14:31:30;14.50;90.10
44833;DHT22;30569;51.252;9.830;2024-03-02T14:33:56;14.40;90.40
44833;DHT22;30569;51.252;9.830;2024-03-02T14:36:22;14.50;91.10
44833;DHT22;30569;51.252;9.830;2024-03-02T14:38:48;14.20;88.00
44833;DHT22;30569;51.252;9.830;2024-03-02T14:41:14;14.40;90.30
44833;DHT22;30569;51.252;9.830;2024-03-02T14:43:40;14.40;89.40
44833;DHT22;30569;51.252;9.830;2024-03-02T14:46:06;14.40;90.00
44833;DHT22;30569;51.252;9.830;2024-03-02T14:48:35;14.30;88.90
44833;DHT22;30569;51.252;9.830;2024-03-02T14:51:00;14.20;90.10
44833;DHT22;30569;51.252;9.830;2024-03-02T14:53:27;14.30;89.50
44833;DHT22;30569;51.252;9.830;2024-03-02T14:55:53;14.20;89.70
44833;DHT22;30569;51.252;9.830;2024-03-02T14:58:19;14.30;90.10
44833;DHT22;30569;51.252;9.830;2024-03-02T15:00:45;14.20;87.10
44833;DHT22;30569;51.252;9.830;2024-03-02T15:03:10;14.10;87.00
44833;DHT22;30569;51.252;9.830;2024-03-02T15:05:37;14.20;89.00
44833;DHT22;30569;51.252;9.830;2024-03-02T15:08:04;14.20;89.50
44833;DHT22;30569;51.252;9.830;2024-03-02T15:10:30;14.20;88.00
44833;DHT22;30569;51.252;9.830;2024-03-02T15:12:56;14.30;89.20
44833;DHT22;30569;51.252;9.830;2024-03-02T15:15:22;14.30;87.20
44833;DHT22;30569;51.252;9.830;2024-03-02T15:17:48;14.40;87.70
44833;DHT22;30569;51.252;9.830;2024-03-02T15:20:13;14.00;87.40
44833;DHT22;30569;51.252;9.830;2024-03-02T15:22:39;14.10;88.00
44833;DHT22;30569;51.252;9.830;2024-03-02T15:25:05;14.40;84.20
44833;DHT22;30569;51.252;9.830;2024-03-02T15:27:31;14.10;85.10
44833;DHT22;30569;51.252;9.830;2024-03-02T15:29:56;14.20;83.60
44833;DHT22;30569;51.252;9.830;2024-03-02T15:32:23;14.20;84.00
44833;DHT22;30569;51.252;9.830;2024-03-02T15:34:49;14.20;83.40
44833;DHT22;30569;51.252;9.830;2024-03-02T15:37:15;14.00;84.20
44833;DHT22;30569;51.252;9.830;2024-03-02T15:39:40;13.90;85.10
44833;DHT22;30569;51.252;9.830;2024-03-02T15:42:06;14.10;83.10
44833;DHT22;30569;51.252;9.830;2024-03-02T15:44:32;14.10;82.50
44833;DHT22;30569;51.252;9.830;2024-03-02T15:46:58;13.80;85.50
44833;DHT22;30569;51.252;9.830;2024-03-02T15:49:24;14.00;85.90
44833;DHT22;30569;51.252;9.830;2024-03-02T15:51:50;14.40;85.20
44833;DHT22;30569;51.252;9.830;2024-03-02T15:54:15;14.70;85.90
44833;DHT22;30569;51.252;9.830;2024-03-02T15:56:41;14.60;84.20
44833;DHT22;30569;51.252;9.830;2024-03-02T15:59:07;14.10;84.00
44833;DHT22;30569;51.252;9.830;2024-03-02T16:01:32;13.10;87.50
44833;DHT22;30569;51.252;9.830;2024-03-02T16:03:58;13.30;86.10
44833;DHT22;30569;51.252;9.830;2024-03-02T16:06:23;13.70;86.30
44833;DHT22;30569;51.252;9.830;2024-03-02T16:08:49;13.90;84.80
44833;DHT22;30569;51.252;9.830;2024-03-02T16:11:16;13.30;87.60
44833;DHT22;30569;51.252;9.830;2024-03-02T16:13:42;12.90;90.00
44833;DHT22;30569;51.252;9.830;2024-03-02T16:16:07;13.30;88.00
44833;DHT22;30569;51.252;9.830;2024-03-02T16:18:33;13.30;88.30
44833;DHT22;30569;51.252;9.830;2024-03-02T16:20:59;13.60;87.60
44833;DHT22;30569;51.252;9.830;2024-03-02T16:23:25;13.70;89.30
44833;DHT22;30569;51.252;9.830;2024-03-02T16:25:51;13.60;88.60
44833;DHT22;30569;51.252;9.830;2024-03-02T16:28:16;13.60;90.00
44833;DHT22;30569;51.252;9.830;2024-03-02T16:30:42;13.40;90.00
44833;DHT22;30569;51.252;9.830;2024-03-02T16:33:07;13.40;90.30
44833;DHT22;30569;51.252;9.830;2024-03-02T16:35:33;12.40;91.30
44833;DHT22;30569;51.252;9.830;2024-03-02T16:37:59;12.30;91.90
44833;DHT22;30569;51.252;9.830;2024-03-02T16:40:24;12.10;91.80
44833;DHT22;30569;51.252;9.830;2024-03-02T16:42:50;11.90;91.80
44833;DHT22;30569;51.252;9.830;2024-03-02T16:45:17;11.90;92.10
44833;DHT22;30569;51.252;9.830;2024-03-02T16:47:43;12.00;92.50
44833;DHT22;30569;51.252;9.830;2024-03-02T16:50:09;11.90;92.50
44833;DHT22;30569;51.252;9.830;2024-03-02T16:52:37;11.90;92.70
44833;DHT22;30569;51.252;9.830;2024-03-02T16:55:02;11.60;93.30
44833;DHT22;30569;51.252;9.830;2024-03-02T16:57:28;11.50;93.60
44833;DHT22;30569;51.252;9.830;2024-03-02T16:59:54;11.20;93.60
44833;DHT22;30569;51.252;9.830;2024-03-02T17:02:19;11.20;93.80